sensor_id;sensor_type;location;lat;lon;timestamp;pressure;altitude;pressure_sealevel;temperature;humidity
69198;BME280;56311;50.298;8.514;2022-07-10T00:00:54;62402.38;;;-147.88;100.00
69198;BME280;56311;50.298;8.514;2022-07-10T00:03:21;62402.38;;;-147.88;100.00
69198;BME280;56311;50.298;8.514;2022-07-10T00:05:50;62402.38;;;-147.88;100.00
69198;BME280;56311;50.298;8.514;2022-07-10T00:08:17;62402.38;;;-147.88;100.00
69198;BME280;56311;50.298;8.514;2022-07-10T00:10:44;62402.38;;;-147.88;100.00
69198;BME280;56311;50.298;8.514;2022-07-10T00:13:11;62402.38;;;-147.88;100.00
69198;BME280;56311;50.298;8.514;2022-07-10T00:15:38;62402.38;;;-147.88;100.00
69198;BME280;56311;50.298;8.514;2022-07-10T00:18:05;62402.38;;;-147.88;100.00
69198;BME280;56311;50.298;8.514;2022-07-10T00:20:32;62402.38;;;-147.88;100.00
69198;BME280;56311;50.298;8.514;2022-07-10T00:23:01;62402.38;;;-147.88;100.00
69198;BME280;56311;50.298;8.514;2022-07-10T00:25:28;62402.38;;;-147.88;100.00
69198;BME280;56311;50.298;8.514;2022-07-10T00:27:57;62402.38;;;-147.88;100.00
69198;BME280;56311;50.298;8.514;2022-07-10T00:30:24;98558.03;;;13.08;93.34
69198;BME280;56311;50.298;8.514;2022-07-10T00:32:51;98562.97;;;13.00;94.10
69198;BME280;56311;50.298;8.514;2022-07-10T00:35:18;98562.44;;;12.98;93.63
69198;BME280;56311;50.298;8.514;2022-07-10T00:37:45;98556.22;;;12.98;93.19
69198;BME280;56311;50.298;8.514;2022-07-10T00:40:14;98556.75;;;12.95;93.46
69198;BME280;56311;50.298;8.514;2022-07-10T00:42:40;98560.81;;;12.97;92.78
69198;BME280;56311;50.298;8.514;2022-07-10T00:45:08;98560.31;;;12.90;92.59
69198;BME280;56311;50.298;8.514;2022-07-10T00:47:35;98558.75;;;12.84;92.55
69198;BME280;56311;50.298;8.514;2022-07-10T00:50:03;98557.41;;;12.81;92.62
69198;BME280;56311;50.298;8.514;2022-07-10T00:52:30;98563.38;;;12.83;93.05
69198;BME280;56311;50.298;8.514;2022-07-10T00:54:57;98555.53;;;12.82;93.35
69198;BME280;56311;50.298;8.514;2022-07-10T00:57:26;98559.94;;;12.72;92.58
69198;BME280;56311;50.298;8.514;2022-07-10T00:59:53;98568.09;;;12.67;93.07
69198;BME280;56311;50.298;8.514;2022-07-10T01:02:20;98563.03;;;12.50;94.12
69198;BME280;56311;50.298;8.514;2022-07-10T01:04:47;98564.94;;;12.50;93.81
69198;BME280;56311;50.298;8.514;2022-07-10T01:07:14;98572.03;;;12.46;94.38
69198;BME280;56311;50.298;8.514;2022-07-10T01:09:42;98568.78;;;12.44;94.65
69198;BME280;56311;50.298;8.514;2022-07-10T01:12:10;98571.50;;;12.44;94.28
69198;BME280;56311;50.298;8.514;2022-07-10T01:14:41;98568.78;;;12.44;94.69
69198;BME280;56311;50.298;8.514;2022-07-10T01:17:08;98576.09;;;12.43;94.66
69198;BME280;56311;50.298;8.514;2022-07-10T01:19:35;62402.38;;;-147.88;100.00
69198;BME280;56311;50.298;8.514;2022-07-10T01:22:04;98570.94;;;12.41;94.22
69198;BME280;56311;50.298;8.514;2022-07-10T01:24:31;98558.22;;;12.42;94.23
69198;BME280;56311;50.298;8.514;2022-07-10T01:26:58;98556.50;;;12.51;94.20
69198;BME280;56311;50.298;8.514;2022-07-10T01:29:25;98553.00;;;12.51;93.52
69198;BME280;56311;50.298;8.514;2022-07-10T01:31:53;98541.94;;;12.42;93.41
69198;BME280;56311;50.298;8.514;2022-07-10T01:34:23;98550.06;;;12.42;93.57
69198;BME280;56311;50.298;8.514;2022-07-10T01:36:50;98548.16;;;12.42;93.38
69198;BME280;56311;50.298;8.514;2022-07-10T01:39:18;98557.44;;;12.36;93.21
69198;BME280;56311;50.298;8.514;2022-07-10T01:41:45;98552.53;;;12.33;93.68
69198;BME280;56311;50.298;8.514;2022-07-10T01:44:12;98555.25;;;12.33;93.48
69198;BME280;56311;50.298;8.514;2022-07-10T01:46:43;98550.94;;;12.27;93.79
69198;BME280;56311;50.298;8.514;2022-07-10T01:49:11;98565.34;;;12.22;93.68
69198;BME280;56311;50.298;8.514;2022-07-10T01:51:38;98567.81;;;12.19;93.63
69198;BME280;56311;50.298;8.514;2022-07-10T01:54:05;98567.88;;;12.08;93.99
69198;BME280;56311;50.298;8.514;2022-07-10T01:56:33;98561.88;;;12.12;94.01
69198;BME280;56311;50.298;8.514;2022-07-10T01:59:00;98564.06;;;12.09;93.99
69198;BME280;56311;50.298;8.514;2022-07-10T02:01:32;98562.44;;;12.08;93.96
69198;BME280;56311;50.298;8.514;2022-07-10T02:04:00;98560.81;;;12.07;93.17
69198;BME280;56311;50.298;8.514;2022-07-10T02:06:45;98560.28;;;12.10;93.46
69198;BME280;56311;50.298;8.514;2022-07-10T02:09:12;98553.22;;;12.04;92.40
69198;BME280;56311;50.298;8.514;2022-07-10T02:11:42;98550.22;;;12.11;92.11
69198;BME280;56311;50.298;8.514;2022-07-10T02:14:09;98545.66;;;12.01;92.39
69198;BME280;56311;50.298;8.514;2022-07-10T02:16:36;98547.53;;;12.01;92.24
69198;BME280;56311;50.298;8.514;2022-07-10T02:19:04;98552.13;;;12.05;91.84
69198;BME280;56311;50.298;8.514;2022-07-10T02:21:31;98553.53;;;11.98;91.70
69198;BME280;56311;50.298;8.514;2022-07-10T02:23:58;98551.88;;;12.02;91.43
69198;BME280;56311;50.298;8.514;2022-07-10T02:26:25;98556.25;;;11.98;91.42
69198;BME280;56311;50.298;8.514;2022-07-10T02:28:54;98553.78;;;11.96;91.60
69198;BME280;56311;50.298;8.514;2022-07-10T02:31:21;98555.41;;;11.97;91.65
69198;BME280;56311;50.298;8.514;2022-07-10T02:33:48;98554.06;;;11.89;91.10
69198;BME280;56311;50.298;8.514;2022-07-10T02:36:15;98553.56;;;11.72;90.89
69198;BME280;56311;50.298;8.514;2022-07-10T02:38:42;98555.22;;;11.68;91.32
69198;BME280;56311;50.298;8.514;2022-07-10T02:41:08;98552.25;;;11.64;90.78
69198;BME280;56311;50.298;8.514;2022-07-10T02:43:35;98556.59;;;11.60;90.99
69198;BME280;56311;50.298;8.514;2022-07-10T02:46:04;98557.69;;;11.54;91.01
69198;BME280;56311;50.298;8.514;2022-07-10T02:48:31;98562.84;;;11.50;91.06
69198;BME280;56311;50.298;8.514;2022-07-10T02:50:58;98556.34;;;11.46;90.63
69198;BME280;56311;50.298;8.514;2022-07-10T02:53:25;98563.66;;;11.40;91.19
69198;BME280;56311;50.298;8.514;2022-07-10T02:55:52;98559.34;;;11.29;91.79
69198;BME280;56311;50.298;8.514;2022-07-10T02:58:19;98556.38;;;11.25;91.82
69198;BME280;56311;50.298;8.514;2022-07-10T03:00:46;98547.97;;;11.27;92.50
69198;BME280;56311;50.298;8.514;2022-07-10T03:03:14;98547.72;;;11.23;92.07
69198;BME280;56311;50.298;8.514;2022-07-10T03:05:44;98543.94;;;11.19;92.09
69198;BME280;56311;50.298;8.514;2022-07-10T03:08:11;98550.97;;;11.15;92.06
69198;BME280;56311;50.298;8.514;2022-07-10T03:10:38;98546.38;;;11.10;92.01
69198;BME280;56311;50.298;8.514;2022-07-10T03:13:05;98558.84;;;11.17;92.22
69198;BME280;56311;50.298;8.514;2022-07-10T03:15:32;98563.16;;;11.07;92.21
69198;BME280;56311;50.298;8.514;2022-07-10T03:17:59;98553.97;;;11.08;91.75
69198;BME280;56311;50.298;8.514;2022-07-10T03:20:28;98559.63;;;11.02;91.14
69198;BME280;56311;50.298;8.514;2022-07-10T03:22:55;98561.78;;;10.94;92.13
69198;BME280;56311;50.298;8.514;2022-07-10T03:25:22;98559.91;;;10.95;91.70
69198;BME280;56311;50.298;8.514;2022-07-10T03:27:49;98567.75;;;10.91;91.71
69198;BME280;56311;50.298;8.514;2022-07-10T03:30:16;98563.72;;;10.89;91.23
69198;BME280;56311;50.298;8.514;2022-07-10T03:32:43;98570.72;;;10.85;91.80
69198;BME280;56311;50.298;8.514;2022-07-10T03:35:09;98569.38;;;10.82;91.03
69198;BME280;56311;50.298;8.514;2022-07-10T03:37:38;98568.81;;;10.80;91.06
69198;BME280;56311;50.298;8.514;2022-07-10T03:40:05;98577.47;;;10.72;91.49
69198;BME280;56311;50.298;8.514;2022-07-10T03:42:32;98576.66;;;10.66;91.72
69198;BME280;56311;50.298;8.514;2022-07-10T03:44:59;98566.63;;;10.61;91.82
69198;BME280;56311;50.298;8.514;2022-07-10T03:47:26;98562.84;;;10.62;91.94
69198;BME280;56311;50.298;8.514;2022-07-10T03:49:53;98568.50;;;10.50;91.87
69198;BME280;56311;50.298;8.514;2022-07-10T03:52:20;98570.13;;;10.51;91.75
69198;BME280;56311;50.298;8.514;2022-07-10T03:54:48;98568.50;;;10.56;91.70
69198;BME280;56311;50.298;8.514;2022-07-10T03:57:15;98561.75;;;10.48;91.76
69198;BME280;56311;50.298;8.514;2022-07-10T04:00:00;98563.91;;;10.46;91.31
69198;BME280;56311;50.298;8.514;2022-07-10T04:02:27;98568.50;;;10.45;91.17
69198;BME280;56311;50.298;8.514;2022-07-10T04:04:54;98576.63;;;10.45;91.03
69198;BME280;56311;50.298;8.514;2022-07-10T04:07:21;98570.94;;;10.42;91.14
69198;BME280;56311;50.298;8.514;2022-07-10T04:09:50;98562.03;;;10.46;90.81
69198;BME280;56311;50.298;8.514;2022-07-10T04:12:17;98570.69;;;10.59;90.92
69198;BME280;56311;50.298;8.514;2022-07-10T04:14:44;98579.66;;;10.70;90.18
69198;BME280;56311;50.298;8.514;2022-07-10T04:17:10;98579.41;;;10.81;89.37
69198;BME280;56311;50.298;8.514;2022-07-10T04:19:37;98582.66;;;10.94;89.15
69198;BME280;56311;50.298;8.514;2022-07-10T04:22:04;98585.06;;;11.01;88.44
69198;BME280;56311;50.298;8.514;2022-07-10T04:24:31;98584.00;;;11.02;88.49
69198;BME280;56311;50.298;8.514;2022-07-10T04:26:59;98583.19;;;11.01;88.45
69198;BME280;56311;50.298;8.514;2022-07-10T04:29:27;98588.34;;;11.13;88.17
69198;BME280;56311;50.298;8.514;2022-07-10T04:31:54;98586.19;;;11.25;87.67
69198;BME280;56311;50.298;8.514;2022-07-10T04:34:21;98600.53;;;11.31;87.86
69198;BME280;56311;50.298;8.514;2022-07-10T04:36:48;98592.69;;;11.35;87.29
69198;BME280;56311;50.298;8.514;2022-07-10T04:39:15;98603.78;;;11.38;87.28
69198;BME280;56311;50.298;8.514;2022-07-10T04:41:42;98601.06;;;11.33;86.77
69198;BME280;56311;50.298;8.514;2022-07-10T04:44:10;98602.44;;;11.36;86.25
69198;BME280;56311;50.298;8.514;2022-07-10T04:46:37;98596.47;;;11.34;86.29
69198;BME280;56311;50.298;8.514;2022-07-10T04:49:04;98602.97;;;11.27;86.52
69198;BME280;56311;50.298;8.514;2022-07-10T04:51:31;98612.44;;;11.40;86.63
69198;BME280;56311;50.298;8.514;2022-07-10T04:53:58;98593.19;;;11.47;86.15
69198;BME280;56311;50.298;8.514;2022-07-10T04:56:25;98599.97;;;11.44;85.17
69198;BME280;56311;50.298;8.514;2022-07-10T04:58:52;98602.13;;;11.47;85.80
69198;BME280;56311;50.298;8.514;2022-07-10T05:01:20;98596.16;;;11.56;85.31
69198;BME280;56311;50.298;8.514;2022-07-10T05:03:47;98595.63;;;11.54;84.52
69198;BME280;56311;50.298;8.514;2022-07-10T05:06:15;98605.66;;;11.63;84.03
69198;BME280;56311;50.298;8.514;2022-07-10T05:08:42;98601.56;;;11.71;84.35
69198;BME280;56311;50.298;8.514;2022-07-10T05:11:09;98601.56;;;11.82;84.02
69198;BME280;56311;50.298;8.514;2022-07-10T05:13:36;98603.13;;;11.93;83.39
69198;BME280;56311;50.298;8.514;2022-07-10T05:16:04;98588.19;;;12.11;82.81
69198;BME280;56311;50.298;8.514;2022-07-10T05:18:32;98596.56;;;12.20;81.57
69198;BME280;56311;50.298;8.514;2022-07-10T05:20:59;98604.72;;;12.15;81.64
69198;BME280;56311;50.298;8.514;2022-07-10T05:23:26;98602.53;;;12.22;81.38
69198;BME280;56311;50.298;8.514;2022-07-10T05:25:53;98604.19;;;12.13;80.73
69198;BME280;56311;50.298;8.514;2022-07-10T05:28:20;98607.47;;;12.04;81.47
69198;BME280;56311;50.298;8.514;2022-07-10T05:30:47;98600.13;;;12.10;81.38
69198;BME280;56311;50.298;8.514;2022-07-10T05:33:15;98599.31;;;12.15;80.22
69198;BME280;56311;50.298;8.514;2022-07-10T05:35:44;98593.06;;;12.09;80.40
69198;BME280;56311;50.298;8.514;2022-07-10T05:38:11;98597.66;;;12.24;80.05
69198;BME280;56311;50.298;8.514;2022-07-10T05:40:38;98601.72;;;12.21;79.63
69198;BME280;56311;50.298;8.514;2022-07-10T05:43:05;98611.47;;;12.28;79.88
69198;BME280;56311;50.298;8.514;2022-07-10T05:45:32;98617.66;;;12.33;79.37
69198;BME280;56311;50.298;8.514;2022-07-10T05:47:59;98616.00;;;12.42;79.08
69198;BME280;56311;50.298;8.514;2022-07-10T05:50:27;98615.50;;;12.35;78.97
69198;BME280;56311;50.298;8.514;2022-07-10T05:52:55;98623.88;;;12.39;79.14
69198;BME280;56311;50.298;8.514;2022-07-10T05:55:22;98618.94;;;12.51;78.53
69198;BME280;56311;50.298;8.514;2022-07-10T05:57:50;98622.81;;;12.40;77.63
69198;BME280;56311;50.298;8.514;2022-07-10T06:00:17;98626.25;;;12.56;77.34
69198;BME280;56311;50.298;8.514;2022-07-10T06:02:44;98623.00;;;12.59;76.79
69198;BME280;56311;50.298;8.514;2022-07-10T06:05:11;98623.56;;;12.51;76.30
69198;BME280;56311;50.298;8.514;2022-07-10T06:07:38;98623.53;;;12.56;75.86
69198;BME280;56311;50.298;8.514;2022-07-10T06:10:07;98627.84;;;12.67;75.32
69198;BME280;56311;50.298;8.514;2022-07-10T06:12:34;98615.56;;;12.75;74.31
69198;BME280;56311;50.298;8.514;2022-07-10T06:15:01;98621.75;;;12.86;73.31
69198;BME280;56311;50.298;8.514;2022-07-10T06:17:28;98627.38;;;12.95;72.55
69198;BME280;56311;50.298;8.514;2022-07-10T06:19:55;98619.22;;;13.00;72.34
69198;BME280;56311;50.298;8.514;2022-07-10T06:22:22;62402.38;;;-147.88;100.00
69198;BME280;56311;50.298;8.514;2022-07-10T06:24:58;98625.59;;;12.80;73.04
69198;BME280;56311;50.298;8.514;2022-07-10T06:27:27;98633.66;;;12.90;73.93
69198;BME280;56311;50.298;8.514;2022-07-10T06:29:55;98638.75;;;13.02;72.94
69198;BME280;56311;50.298;8.514;2022-07-10T06:32:22;98641.50;;;12.97;72.09
69198;BME280;56311;50.298;8.514;2022-07-10T06:34:50;98638.13;;;12.70;72.70
69198;BME280;56311;50.298;8.514;2022-07-10T06:37:18;98632.88;;;12.84;72.80
69198;BME280;56311;50.298;8.514;2022-07-10T06:39:46;98637.34;;;13.10;73.13
69198;BME280;56311;50.298;8.514;2022-07-10T06:42:16;98640.38;;;13.03;71.48
69198;BME280;56311;50.298;8.514;2022-07-10T06:44:45;98632.84;;;12.89;71.86
69198;BME280;56311;50.298;8.514;2022-07-10T06:47:14;98628.94;;;13.06;71.54
69198;BME280;56311;50.298;8.514;2022-07-10T06:50:08;98629.25;;;12.99;70.32
69198;BME280;56311;50.298;8.514;2022-07-10T06:52:57;98622.09;;;13.14;70.61
69198;BME280;56311;50.298;8.514;2022-07-10T06:55:26;98621.41;;;12.98;70.39
69198;BME280;56311;50.298;8.514;2022-07-10T06:57:53;98625.50;;;12.95;70.80
69198;BME280;56311;50.298;8.514;2022-07-10T07:00:21;98616.16;;;13.06;70.12
69198;BME280;56311;50.298;8.514;2022-07-10T07:02:49;98634.44;;;12.96;71.50
69198;BME280;56311;50.298;8.514;2022-07-10T07:05:16;98617.09;;;12.92;72.21
69198;BME280;56311;50.298;8.514;2022-07-10T07:07:43;98630.84;;;13.05;72.33
69198;BME280;56311;50.298;8.514;2022-07-10T07:10:10;98631.06;;;13.14;71.72
69198;BME280;56311;50.298;8.514;2022-07-10T07:12:38;98632.34;;;13.22;71.76
69198;BME280;56311;50.298;8.514;2022-07-10T07:15:06;98636.41;;;13.25;71.13
69198;BME280;56311;50.298;8.514;2022-07-10T07:17:40;98638.22;;;13.40;70.50
69198;BME280;56311;50.298;8.514;2022-07-10T07:20:26;98625.75;;;13.39;69.98
69198;BME280;56311;50.298;8.514;2022-07-10T07:23:12;98632.75;;;13.45;70.07
69198;BME280;56311;50.298;8.514;2022-07-10T07:25:40;98635.53;;;13.69;69.37
69198;BME280;56311;50.298;8.514;2022-07-10T07:28:09;98623.97;;;13.82;68.04
69198;BME280;56311;50.298;8.514;2022-07-10T07:30:39;98633.84;;;14.03;67.88
69198;BME280;56311;50.298;8.514;2022-07-10T07:33:08;98634.75;;;14.17;66.73
69198;BME280;56311;50.298;8.514;2022-07-10T07:35:35;98626.69;;;14.07;66.23
69198;BME280;56311;50.298;8.514;2022-07-10T07:38:05;98626.84;;;13.96;67.45
69198;BME280;56311;50.298;8.514;2022-07-10T07:40:35;98630.28;;;14.02;67.29
69198;BME280;56311;50.298;8.514;2022-07-10T07:43:04;98632.06;;;14.12;67.28
69198;BME280;56311;50.298;8.514;2022-07-10T07:45:31;98630.00;;;14.28;67.12
69198;BME280;56311;50.298;8.514;2022-07-10T07:47:59;98634.31;;;14.29;66.31
69198;BME280;56311;50.298;8.514;2022-07-10T07:50:29;98625.75;;;14.41;65.90
69198;BME280;56311;50.298;8.514;2022-07-10T07:52:56;98619.19;;;14.66;65.91
69198;BME280;56311;50.298;8.514;2022-07-10T07:55:23;98620.25;;;14.65;66.35
69198;BME280;56311;50.298;8.514;2022-07-10T07:57:51;98628.09;;;14.72;63.50
69198;BME280;56311;50.298;8.514;2022-07-10T08:00:21;98627.91;;;15.06;63.05
69198;BME280;56311;50.298;8.514;2022-07-10T08:02:51;98627.69;;;15.36;62.74
69198;BME280;56311;50.298;8.514;2022-07-10T08:05:20;98628.03;;;15.15;60.91
69198;BME280;56311;50.298;8.514;2022-07-10T08:07:50;98627.06;;;15.06;61.17
69198;BME280;56311;50.298;8.514;2022-07-10T08:10:19;98623.69;;;14.76;62.67
69198;BME280;56311;50.298;8.514;2022-07-10T08:12:47;98626.09;;;14.58;63.22
69198;BME280;56311;50.298;8.514;2022-07-10T08:15:16;98620.50;;;14.49;63.92
69198;BME280;56311;50.298;8.514;2022-07-10T08:17:46;98622.38;;;14.49;64.72
69198;BME280;56311;50.298;8.514;2022-07-10T08:20:13;98619.25;;;14.61;63.70
69198;BME280;56311;50.298;8.514;2022-07-10T08:22:41;98619.09;;;14.52;64.07
69198;BME280;56311;50.298;8.514;2022-07-10T08:25:10;98618.19;;;14.81;63.98
69198;BME280;56311;50.298;8.514;2022-07-10T08:27:37;98614.06;;;15.03;63.71
69198;BME280;56311;50.298;8.514;2022-07-10T08:30:05;98616.88;;;15.31;63.02
69198;BME280;56311;50.298;8.514;2022-07-10T08:32:33;98613.47;;;15.39;62.37
69198;BME280;56311;50.298;8.514;2022-07-10T08:35:00;98611.72;;;15.29;62.66
69198;BME280;56311;50.298;8.514;2022-07-10T08:37:27;98614.44;;;15.29;62.09
69198;BME280;56311;50.298;8.514;2022-07-10T08:39:54;98614.66;;;15.33;62.19
69198;BME280;56311;50.298;8.514;2022-07-10T08:42:22;98612.50;;;15.49;62.07
69198;BME280;56311;50.298;8.514;2022-07-10T08:44:51;98620.09;;;15.33;62.41
69198;BME280;56311;50.298;8.514;2022-07-10T08:47:21;98618.81;;;15.11;63.60
69198;BME280;56311;50.298;8.514;2022-07-10T08:49:48;98616.25;;;15.01;64.03
69198;BME280;56311;50.298;8.514;2022-07-10T08:52:25;98622.03;;;15.32;63.72
69198;BME280;56311;50.298;8.514;2022-07-10T08:54:52;98625.91;;;15.45;62.86
69198;BME280;56311;50.298;8.514;2022-07-10T08:57:19;98627.19;;;15.15;63.08
69198;BME280;56311;50.298;8.514;2022-07-10T08:59:48;98628.59;;;15.31;64.00
69198;BME280;56311;50.298;8.514;2022-07-10T09:02:15;98623.88;;;15.37;62.29
69198;BME280;56311;50.298;8.514;2022-07-10T09:04:42;98621.28;;;15.26;63.00
69198;BME280;56311;50.298;8.514;2022-07-10T09:07:09;98628.13;;;15.43;63.16
69198;BME280;56311;50.298;8.514;2022-07-10T09:09:51;98618.28;;;15.61;62.26
69198;BME280;56311;50.298;8.514;2022-07-10T09:12:19;98619.28;;;16.26;60.73
69198;BME280;56311;50.298;8.514;2022-07-10T09:14:49;98617.06;;;16.93;58.72
69198;BME280;56311;50.298;8.514;2022-07-10T09:17:16;98605.47;;;17.64;55.82
69198;BME280;56311;50.298;8.514;2022-07-10T09:19:44;98612.22;;;17.35;55.15
69198;BME280;56311;50.298;8.514;2022-07-10T09:22:12;98620.59;;;16.43;55.99
69198;BME280;56311;50.298;8.514;2022-07-10T09:24:42;98611.28;;;16.02;57.80
69198;BME280;56311;50.298;8.514;2022-07-10T09:27:11;98609.16;;;15.99;58.58
69198;BME280;56311;50.298;8.514;2022-07-10T09:29:46;98612.59;;;15.90;59.28
69198;BME280;56311;50.298;8.514;2022-07-10T09:32:15;98607.88;;;15.63;59.13
69198;BME280;56311;50.298;8.514;2022-07-10T09:34:45;98603.50;;;16.37;57.43
69198;BME280;56311;50.298;8.514;2022-07-10T09:37:22;98597.50;;;16.49;56.78
69198;BME280;56311;50.298;8.514;2022-07-10T09:39:55;98594.16;;;16.52;56.11
69198;BME280;56311;50.298;8.514;2022-07-10T09:42:30;98593.31;;;16.65;56.17
69198;BME280;56311;50.298;8.514;2022-07-10T09:45:15;98603.75;;;16.63;55.81
69198;BME280;56311;50.298;8.514;2022-07-10T09:47:54;98598.09;;;16.60;54.66
69198;BME280;56311;50.298;8.514;2022-07-10T09:50:26;98593.03;;;16.53;54.88
69198;BME280;56311;50.298;8.514;2022-07-10T09:52:55;98602.66;;;16.64;53.80
69198;BME280;56311;50.298;8.514;2022-07-10T09:55:23;98590.34;;;16.39;53.81
69198;BME280;56311;50.298;8.514;2022-07-10T09:57:54;98592.63;;;16.60;54.34
69198;BME280;56311;50.298;8.514;2022-07-10T10:00:28;98602.28;;;16.15;56.78
69198;BME280;56311;50.298;8.514;2022-07-10T10:02:59;98604.72;;;16.17;56.87
69198;BME280;56311;50.298;8.514;2022-07-10T10:05:34;98607.63;;;15.93;56.83
69198;BME280;56311;50.298;8.514;2022-07-10T10:08:10;98610.19;;;16.31;56.15
69198;BME280;56311;50.298;8.514;2022-07-10T10:10:43;98592.09;;;17.31;53.24
69198;BME280;56311;50.298;8.514;2022-07-10T10:13:11;98590.69;;;17.65;53.40
69198;BME280;56311;50.298;8.514;2022-07-10T10:15:42;98582.72;;;17.86;51.78
69198;BME280;56311;50.298;8.514;2022-07-10T10:18:12;98579.00;;;17.82;52.75
69198;BME280;56311;50.298;8.514;2022-07-10T10:20:40;98569.22;;;17.90;52.06
69198;BME280;56311;50.298;8.514;2022-07-10T10:23:12;98569.22;;;17.90;52.06
69198;BME280;56311;50.298;8.514;2022-07-10T10:25:40;98565.09;;;18.85;50.44
69198;BME280;56311;50.298;8.514;2022-07-10T10:28:09;62402.38;;;-147.88;100.00
69198;BME280;56311;50.298;8.514;2022-07-10T10:30:43;62402.38;;;-147.88;100.00
69198;BME280;56311;50.298;8.514;2022-07-10T10:33:43;98563.63;;;19.05;48.13
69198;BME280;56311;50.298;8.514;2022-07-10T10:36:13;98567.75;;;18.24;49.85
69198;BME280;56311;50.298;8.514;2022-07-10T10:38:59;98567.75;;;18.24;49.85
69198;BME280;56311;50.298;8.514;2022-07-10T10:41:28;98569.75;;;18.76;48.54
69198;BME280;56311;50.298;8.514;2022-07-10T10:47:06;98558.56;;;18.20;49.79
69198;BME280;56311;50.298;8.514;2022-07-10T10:49:52;98556.72;;;18.99;48.37
69198;BME280;56311;50.298;8.514;2022-07-10T10:52:23;62402.38;;;-147.88;100.00
69198;BME280;56311;50.298;8.514;2022-07-10T10:55:15;62402.38;;;-147.88;100.00
69198;BME280;56311;50.298;8.514;2022-07-10T10:57:43;62402.38;;;-147.88;100.00
69198;BME280;56311;50.298;8.514;2022-07-10T11:00:29;62402.38;;;-147.88;100.00
69198;BME280;56311;50.298;8.514;2022-07-10T11:03:13;98556.72;;;18.99;48.37
69198;BME280;56311;50.298;8.514;2022-07-10T11:05:46;98546.16;;;19.36;45.58
69198;BME280;56311;50.298;8.514;2022-07-10T11:08:14;62402.38;;;-147.88;100.00
69198;BME280;56311;50.298;8.514;2022-07-10T11:10:42;62402.38;;;-147.88;100.00
69198;BME280;56311;50.298;8.514;2022-07-10T11:13:15;98558.50;;;18.02;49.33
69198;BME280;56311;50.298;8.514;2022-07-10T11:15:45;62402.38;;;-147.88;100.00
69198;BME280;56311;50.298;8.514;2022-07-10T11:18:13;62402.38;;;-147.88;100.00
69198;BME280;56311;50.298;8.514;2022-07-10T11:20:44;62402.38;;;-147.88;100.00
69198;BME280;56311;50.298;8.514;2022-07-10T11:23:23;62402.38;;;-147.88;100.00
69198;BME280;56311;50.298;8.514;2022-07-10T11:25:59;62402.38;;;-147.88;100.00
69198;BME280;56311;50.298;8.514;2022-07-10T11:28:44;62402.38;;;-147.88;100.00
69198;BME280;56311;50.298;8.514;2022-07-10T11:31:14;62402.38;;;-147.88;100.00
69198;BME280;56311;50.298;8.514;2022-07-10T11:33:42;62402.38;;;-147.88;100.00
69198;BME280;56311;50.298;8.514;2022-07-10T11:36:13;62402.38;;;-147.88;100.00
69198;BME280;56311;50.298;8.514;2022-07-10T11:38:41;62402.38;;;-147.88;100.00
69198;BME280;56311;50.298;8.514;2022-07-10T11:41:16;62402.38;;;-147.88;100.00
69198;BME280;56311;50.298;8.514;2022-07-10T11:43:48;62402.38;;;-147.88;100.00
69198;BME280;56311;50.298;8.514;2022-07-10T11:46:17;62402.38;;;-147.88;100.00
69198;BME280;56311;50.298;8.514;2022-07-10T11:48:44;62402.38;;;-147.88;100.00
69198;BME280;56311;50.298;8.514;2022-07-10T11:51:21;62402.38;;;-147.88;100.00
69198;BME280;56311;50.298;8.514;2022-07-10T11:53:53;62402.38;;;-147.88;100.00
69198;BME280;56311;50.298;8.514;2022-07-10T11:56:21;62402.38;;;-147.88;100.00
69198;BME280;56311;50.298;8.514;2022-07-10T11:58:56;62402.38;;;-147.88;100.00
69198;BME280;56311;50.298;8.514;2022-07-10T12:01:23;62402.38;;;-147.88;100.00
69198;BME280;56311;50.298;8.514;2022-07-10T12:03:55;62402.38;;;-147.88;100.00
69198;BME280;56311;50.298;8.514;2022-07-10T12:06:25;62402.38;;;-147.88;100.00
69198;BME280;56311;50.298;8.514;2022-07-10T12:08:53;62402.38;;;-147.88;100.00
69198;BME280;56311;50.298;8.514;2022-07-10T12:11:21;62402.38;;;-147.88;100.00
69198;BME280;56311;50.298;8.514;2022-07-10T12:13:49;98545.69;;;19.82;45.85
69198;BME280;56311;50.298;8.514;2022-07-10T12:16:17;98545.56;;;19.22;46.72
69198;BME280;56311;50.298;8.514;2022-07-10T12:18:45;98549.94;;;18.97;48.16
69198;BME280;56311;50.298;8.514;2022-07-10T12:21:14;98547.69;;;18.99;48.24
69198;BME280;56311;50.298;8.514;2022-07-10T12:23:43;98546.88;;;18.98;48.38
69198;BME280;56311;50.298;8.514;2022-07-10T12:26:11;98557.97;;;18.67;48.62
69198;BME280;56311;50.298;8.514;2022-07-10T12:28:53;98560.75;;;19.02;48.28
69198;BME280;56311;50.298;8.514;2022-07-10T12:31:25;98553.47;;;19.15;47.83
69198;BME280;56311;50.298;8.514;2022-07-10T12:33:55;98557.53;;;19.08;47.96
69198;BME280;56311;50.298;8.514;2022-07-10T12:36:25;98554.94;;;19.03;48.16
69198;BME280;56311;50.298;8.514;2022-07-10T12:38:57;98549.16;;;18.96;47.67
69198;BME280;56311;50.298;8.514;2022-07-10T12:41:27;98558.31;;;18.56;48.34
69198;BME280;56311;50.298;8.514;2022-07-10T12:43:54;98554.34;;;19.54;47.25
69198;BME280;56311;50.298;8.514;2022-07-10T12:46:23;98549.84;;;20.78;45.23
69198;BME280;56311;50.298;8.514;2022-07-10T12:49:02;62402.38;;;-147.88;100.00
69198;BME280;56311;50.298;8.514;2022-07-10T12:51:32;98548.03;;;20.31;45.32
69198;BME280;56311;50.298;8.514;2022-07-10T12:54:37;98553.78;;;19.87;46.74
69198;BME280;56311;50.298;8.514;2022-07-10T12:57:05;98558.56;;;19.99;46.25
69198;BME280;56311;50.298;8.514;2022-07-10T12:59:33;98553.59;;;19.92;46.40
69198;BME280;56311;50.298;8.514;2022-07-10T13:02:14;98559.38;;;19.99;45.64
69198;BME280;56311;50.298;8.514;2022-07-10T13:04:51;98549.84;;;19.49;46.44
69198;BME280;56311;50.298;8.514;2022-07-10T13:07:19;98542.91;;;19.52;47.21
69198;BME280;56311;50.298;8.514;2022-07-10T13:09:49;98546.25;;;19.57;47.40